createdAt,value
2018-02-06T00:01:15.928Z,18.23
2018-02-06T00:03:43.490Z,16.97
2018-02-06T00:06:11.051Z,17.23
2018-02-06T00:08:38.595Z,18.47
2018-02-06T00:11:06.148Z,16.43
2018-02-06T00:13:33.682Z,16.97
2018-02-06T00:16:01.954Z,19.13
2018-02-06T00:18:29.529Z,18.07
2018-02-06T00:20:57.834Z,17.90
2018-02-06T00:23:25.354Z,18.73
2018-02-06T00:25:52.906Z,19.57
2018-02-06T00:28:20.476Z,18.03
2018-02-06T00:33:34.491Z,19.03
2018-02-06T00:36:02.041Z,17.53
2018-02-06T00:38:29.592Z,18.27
2018-02-06T00:40:57.158Z,18.13
2018-02-06T00:43:24.888Z,19.47
2018-02-06T00:45:52.424Z,19.10
2018-02-06T00:48:20.008Z,18.05
2018-02-06T00:50:48.300Z,19.40
2018-02-06T02:13:56.332Z,18.40
2018-02-06T02:16:23.855Z,19.48
2018-02-06T02:18:51.415Z,19.00
2018-02-06T02:21:18.954Z,19.35
2018-02-06T02:23:46.480Z,19.45
2018-02-06T02:26:13.985Z,17.42
2018-02-06T02:28:42.271Z,19.00
2018-02-06T02:31:09.804Z,17.95
2018-02-06T02:33:37.334Z,18.23
2018-02-06T02:36:04.831Z,18.57
2018-02-06T02:38:32.380Z,17.70
2018-02-06T02:40:59.902Z,18.73
2018-02-06T04:39:07.226Z,18.10
2018-02-06T04:41:34.731Z,18.75
2018-02-06T04:44:02.266Z,17.87
2018-02-06T04:46:29.777Z,18.65
2018-02-06T04:48:57.301Z,18.00
2018-02-06T04:51:24.822Z,18.73
2018-02-06T04:53:52.347Z,18.85
2018-02-06T04:56:19.868Z,17.83
2018-02-06T04:58:47.435Z,18.35
2018-02-06T05:01:14.931Z,17.65
2018-02-06T05:03:43.225Z,18.35
2018-02-06T05:06:10.748Z,17.95
2018-02-06T05:08:38.248Z,16.80
2018-02-06T05:11:05.857Z,17.00
2018-02-06T05:13:33.384Z,17.65
2018-02-06T05:16:00.889Z,17.02
2018-02-06T05:18:28.414Z,17.85
2018-02-06T05:20:55.940Z,17.15
2018-02-06T05:23:23.467Z,16.80
2018-02-06T05:25:51.028Z,17.48
2018-02-06T05:28:18.535Z,16.50
2018-02-06T05:30:46.054Z,17.20
2018-02-06T05:33:13.564Z,15.75
2018-02-06T05:35:41.081Z,16.62
2018-02-06T05:38:08.637Z,16.98
2018-02-06T05:40:36.205Z,15.18
2018-02-06T05:43:03.716Z,15.40
2018-02-06T05:45:31.259Z,16.08
2018-02-06T05:47:58.788Z,16.95
2018-02-06T05:50:27.075Z,15.45
2018-02-06T05:52:55.367Z,16.40
2018-02-06T05:55:22.908Z,15.18
2018-02-06T05:57:50.434Z,15.23
2018-02-06T06:00:17.958Z,16.35
2018-02-06T06:02:45.479Z,14.40
2018-02-06T06:05:12.993Z,14.98
2018-02-06T06:07:40.546Z,15.38
2018-02-06T06:10:08.063Z,15.40
2018-02-06T06:12:36.351Z,16.27
2018-02-06T06:15:03.851Z,16.00
2018-02-06T06:17:31.360Z,16.45
2018-02-06T06:19:58.876Z,16.52
2018-02-06T06:22:26.392Z,14.77
2018-02-06T06:24:53.928Z,14.68
2018-02-06T06:27:21.451Z,15.50
2018-02-06T06:29:48.966Z,17.37
2018-02-06T06:32:16.513Z,15.45
2018-02-06T06:34:44.064Z,15.93
2018-02-06T06:37:11.555Z,19.23
2018-02-06T06:39:39.083Z,14.98
2018-02-06T06:42:06.646Z,15.77
2018-02-06T06:44:34.156Z,16.08
2018-02-06T06:47:01.657Z,15.98
2018-02-06T06:49:29.185Z,15.15
2018-02-06T06:51:56.697Z,16.20
2018-02-06T06:54:24.205Z,16.12
2018-02-06T06:56:51.729Z,16.58
2018-02-06T06:59:20.062Z,17.35
2018-02-06T07:01:47.608Z,14.80
2018-02-06T07:04:15.110Z,15.25
2018-02-06T07:06:42.819Z,15.80
2018-02-06T07:09:10.417Z,17.23
2018-02-06T07:11:38.047Z,16.65
2018-02-06T07:14:05.581Z,15.90
2018-02-06T07:16:33.101Z,15.63
2018-02-06T07:19:00.661Z,16.37
2018-02-06T07:21:28.198Z,16.87
2018-02-06T07:23:55.760Z,17.12
2018-02-06T07:26:23.283Z,17.55
2018-02-06T07:28:51.595Z,16.67
2018-02-06T07:31:19.131Z,17.77
2018-02-06T07:33:46.665Z,15.88
2018-02-06T07:36:14.178Z,18.05
2018-02-06T07:38:41.716Z,18.25
2018-02-06T07:41:09.239Z,17.65
2018-02-06T07:43:36.772Z,17.85
2018-02-06T07:46:04.311Z,16.73
2018-02-06T07:48:31.869Z,16.30
2018-02-06T07:50:59.402Z,16.45
2018-02-06T07:53:26.968Z,15.90
2018-02-06T07:55:54.475Z,16.80
2018-02-06T07:58:22.014Z,17.42
2018-02-06T08:00:49.551Z,17.25
2018-02-06T08:03:17.078Z,15.38
2018-02-06T08:05:44.619Z,16.48
2018-02-06T08:08:12.119Z,16.60
2018-02-06T08:10:39.664Z,16.10
2018-02-06T08:13:07.201Z,16.87
2018-02-06T08:15:34.719Z,17.58
2018-02-06T08:18:02.285Z,16.17
2018-02-06T08:20:29.826Z,17.08
2018-02-06T08:22:58.115Z,18.30
2018-02-06T08:25:25.667Z,16.73
2018-02-06T08:27:53.941Z,16.75
2018-02-06T08:30:21.445Z,17.40
2018-02-06T08:32:49.031Z,17.83
2018-02-06T08:35:16.576Z,16.70
2018-02-06T08:37:44.116Z,16.35
2018-02-06T08:40:11.641Z,17.58
2018-02-06T08:42:39.922Z,16.42
2018-02-06T08:45:07.423Z,18.25
2018-02-06T08:47:34.936Z,17.30
2018-02-06T08:50:03.240Z,17.08
2018-02-06T08:52:30.752Z,18.23
2018-02-06T08:54:59.046Z,16.67
2018-02-06T08:57:26.625Z,17.62
2018-02-06T08:59:54.912Z,16.90
2018-02-06T09:02:22.429Z,17.30
2018-02-06T09:04:49.956Z,17.17
2018-02-06T09:07:18.268Z,16.80
2018-02-06T09:09:45.765Z,17.55
2018-02-06T09:12:13.272Z,17.40
2018-02-06T09:14:40.778Z,17.10
2018-02-06T09:17:08.325Z,17.27
2018-02-06T09:19:35.856Z,17.07
2018-02-06T09:22:03.358Z,18.33
2018-02-06T09:24:31.642Z,17.65
2018-02-06T09:26:59.158Z,16.20
2018-02-06T09:29:26.648Z,16.23
2018-02-06T09:31:54.949Z,17.33
2018-02-06T09:34:22.451Z,15.93
2018-02-06T09:36:49.938Z,16.27
2018-02-06T09:39:17.447Z,18.13
2018-02-06T09:41:44.951Z,16.90
2018-02-06T09:44:12.491Z,16.83
2018-02-06T09:46:40.052Z,17.37
2018-02-06T09:49:07.566Z,18.03
2018-02-06T09:51:35.072Z,17.23
2018-02-06T09:54:02.559Z,16.57
2018-02-06T09:56:30.062Z,17.80
2018-02-06T09:58:57.552Z,16.50
2018-02-06T10:01:25.054Z,17.27
2018-02-06T10:03:52.575Z,16.90
2018-02-06T10:06:20.071Z,17.10
2018-02-06T10:08:48.364Z,17.83
2018-02-06T10:11:15.865Z,16.50
2018-02-06T10:13:43.370Z,18.23
2018-02-06T10:16:10.895Z,15.80
2018-02-06T10:18:38.401Z,16.93
2018-02-06T10:21:05.970Z,16.33
2018-02-06T10:23:33.501Z,16.80
2018-02-06T10:26:01.750Z,17.07
2018-02-06T10:28:29.252Z,15.50
2018-02-06T10:30:56.761Z,16.43
2018-02-06T10:33:24.279Z,16.43
2018-02-06T10:35:51.760Z,16.73
2018-02-06T10:38:19.256Z,17.00
2018-02-06T10:40:46.772Z,16.97
2018-02-06T10:43:14.267Z,17.40
2018-02-06T10:45:41.805Z,17.63
2018-02-06T10:48:09.312Z,16.13
2018-02-06T10:50:36.849Z,16.03
2018-02-06T10:53:04.430Z,16.73
2018-02-06T10:55:33.840Z,16.00
2018-02-06T10:58:01.339Z,18.27
2018-02-06T11:00:28.823Z,17.33
2018-02-06T11:02:56.326Z,17.57
2018-02-06T11:05:23.814Z,18.87
2018-02-06T11:07:51.321Z,19.40
2018-02-06T11:10:18.828Z,17.97
2018-02-06T11:12:46.411Z,19.23
2018-02-06T11:15:13.895Z,19.20
2018-02-06T11:17:41.397Z,18.23
2018-02-06T11:20:08.943Z,18.17
2018-02-06T11:22:36.431Z,18.57
2018-02-06T11:25:03.911Z,19.43
2018-02-06T11:27:31.413Z,20.13
2018-02-06T11:29:58.918Z,17.53
2018-02-06T11:32:26.433Z,17.73
2018-02-06T11:34:53.967Z,19.30
2018-02-06T11:37:21.445Z,18.60
2018-02-06T11:39:48.949Z,19.00
2018-02-06T11:42:16.441Z,16.97
2018-02-06T11:44:43.956Z,18.53
2018-02-06T11:47:11.459Z,17.17
2018-02-06T11:49:38.951Z,18.17
2018-02-06T11:52:06.479Z,18.57
2018-02-06T11:54:33.981Z,19.73
2018-02-06T11:57:01.488Z,17.40
2018-02-06T11:59:28.981Z,18.77
2018-02-06T12:01:56.508Z,18.20
2018-02-06T12:04:24.013Z,19.87
2018-02-06T12:06:51.507Z,19.80
2018-02-06T12:09:19.046Z,19.77
2018-02-06T12:11:46.537Z,19.77
2018-02-06T12:14:14.026Z,18.13
2018-02-06T12:16:41.531Z,18.43
2018-02-06T12:19:09.796Z,18.33
2018-02-06T12:21:37.307Z,18.13
2018-02-06T12:24:04.818Z,17.00
2018-02-06T12:26:33.097Z,19.60
2018-02-06T12:29:00.626Z,17.50
2018-02-06T12:31:28.911Z,18.07
2018-02-06T12:33:56.426Z,18.97
2018-02-06T12:36:23.942Z,17.77
2018-02-06T12:38:52.218Z,18.37
2018-02-06T12:41:19.973Z,17.90
2018-02-06T12:43:47.468Z,16.30
2018-02-06T12:46:14.981Z,18.37
2018-02-06T12:48:42.516Z,17.13
2018-02-06T12:51:10.008Z,17.50
2018-02-06T12:53:37.508Z,18.50
2018-02-06T12:56:05.030Z,18.40
2018-02-06T12:58:32.538Z,19.37
2018-02-06T13:01:00.024Z,18.90
2018-02-06T13:03:27.543Z,18.80
2018-02-06T13:05:55.802Z,18.63
2018-02-06T13:08:23.359Z,16.87
2018-02-06T13:10:51.636Z,18.37
2018-02-06T13:13:19.154Z,18.43
2018-02-06T13:15:46.668Z,19.03
2018-02-06T13:18:14.928Z,17.53
2018-02-06T13:20:42.415Z,18.30
2018-02-06T13:23:09.901Z,16.93
2018-02-06T13:25:37.405Z,18.47
2018-02-06T13:28:04.914Z,18.73
2018-02-06T13:30:32.410Z,17.93
2018-02-06T13:32:59.976Z,16.67
2018-02-06T13:35:28.285Z,17.93
2018-02-06T13:37:55.798Z,18.27
2018-02-06T13:40:23.333Z,17.37
2018-02-06T13:42:50.870Z,17.93
2018-02-06T13:45:18.359Z,18.27
2018-02-06T13:47:45.843Z,18.93
2018-02-06T13:50:13.350Z,17.30
2018-02-06T13:52:40.852Z,18.80
2018-02-06T13:55:08.348Z,17.90
2018-02-06T13:57:54.275Z,19.03
2018-02-06T14:00:21.816Z,19.03
2018-02-06T14:02:50.079Z,18.40
2018-02-06T14:05:17.573Z,18.73
2018-02-06T14:07:45.093Z,19.63
2018-02-06T14:10:12.589Z,19.10
2018-02-06T14:12:40.078Z,19.10
2018-02-06T14:15:07.600Z,18.23
2018-02-06T14:17:35.153Z,19.80
2018-02-06T14:20:02.663Z,19.93
2018-02-06T14:22:30.159Z,20.50
2018-02-06T14:24:57.761Z,20.03
2018-02-06T14:27:25.295Z,19.20
2018-02-06T14:29:52.787Z,20.50
2018-02-06T14:32:20.298Z,19.43
2018-02-06T14:34:48.585Z,18.57
2018-02-06T14:37:16.081Z,18.77
2018-02-06T14:39:43.600Z,18.23
2018-02-06T14:42:11.890Z,19.40
2018-02-06T14:44:39.571Z,19.50
2018-02-06T14:47:07.097Z,19.47
2018-02-06T14:49:34.604Z,18.57
2018-02-06T14:52:02.120Z,18.83
2018-02-06T14:54:30.430Z,19.53
2018-02-06T14:56:57.944Z,20.10
2018-02-06T14:59:25.432Z,18.77
2018-02-06T15:01:53.747Z,19.07
2018-02-06T15:04:21.256Z,18.33
2018-02-06T15:06:48.793Z,21.33
2018-02-06T15:09:16.882Z,18.53
2018-02-06T15:11:44.407Z,16.70
2018-02-06T15:14:11.943Z,19.57
2018-02-06T15:16:39.444Z,19.87
2018-02-06T15:19:06.938Z,18.70
2018-02-06T15:21:34.452Z,18.50
2018-02-06T15:24:01.957Z,20.53
2018-02-06T15:26:29.458Z,18.23
2018-02-06T15:28:56.986Z,18.90
2018-02-06T15:31:24.524Z,17.90
2018-02-06T15:33:52.778Z,16.80
2018-02-06T15:36:20.282Z,16.90
2018-02-06T15:38:47.816Z,18.20
2018-02-06T15:41:15.325Z,17.77
2018-02-06T15:43:42.835Z,18.43
2018-02-06T15:46:10.368Z,18.37
2018-02-06T15:48:37.880Z,17.03
2018-02-06T15:51:05.366Z,18.73
2018-02-06T15:53:32.900Z,17.23
2018-02-06T15:56:00.420Z,17.20
2018-02-06T15:58:27.930Z,17.93
2018-02-06T16:00:57.936Z,18.13
2018-02-06T16:03:25.428Z,16.77
2018-02-06T16:05:52.951Z,18.73
2018-02-06T16:08:21.242Z,18.50
2018-02-06T16:10:48.769Z,18.77
2018-02-06T16:13:16.257Z,16.33
2018-02-06T16:15:43.772Z,17.57
2018-02-06T16:18:11.305Z,16.20
2018-02-06T16:20:38.829Z,17.73
2018-02-06T16:23:06.332Z,17.40
2018-02-06T16:25:33.834Z,15.77
2018-02-06T16:28:01.369Z,15.93
2018-02-06T16:30:28.867Z,16.50
2018-02-06T16:32:56.565Z,17.60
2018-02-06T16:35:24.083Z,18.40
2018-02-06T16:37:51.651Z,16.50
2018-02-06T16:40:19.173Z,17.47
2018-02-06T16:42:46.663Z,16.50
2018-02-06T16:45:14.940Z,17.57
2018-02-06T16:47:42.463Z,16.93
2018-02-06T17:19:18.842Z,14.37
2018-02-06T17:32:34.332Z,15.50
2018-02-06T17:35:01.839Z,16.47
2018-02-06T17:37:29.332Z,14.50
2018-02-06T17:39:56.835Z,16.97
2018-02-06T17:42:24.325Z,16.60
2018-02-06T17:44:51.830Z,15.77
2018-02-06T17:47:19.328Z,17.27
2018-02-06T17:49:46.886Z,15.80
2018-02-06T17:52:14.378Z,16.20
2018-02-06T17:54:41.913Z,15.20
2018-02-06T17:57:09.460Z,13.97
2018-02-06T17:59:36.953Z,14.50
2018-02-06T18:02:04.440Z,15.90
2018-02-06T18:04:31.962Z,14.47
2018-02-06T18:06:59.466Z,15.00
2018-02-06T18:09:26.973Z,19.10
2018-02-06T18:11:54.511Z,13.87
2018-02-06T18:14:22.826Z,13.53
2018-02-06T18:16:50.314Z,17.23
2018-02-06T18:19:17.847Z,15.13
2018-02-06T18:21:45.372Z,16.97
2018-02-06T18:24:13.690Z,15.73
2018-02-06T18:26:41.357Z,14.83
2018-02-06T18:29:08.928Z,16.50
2018-02-06T18:31:37.187Z,15.77
2018-02-06T18:34:05.211Z,14.73
2018-02-06T18:36:32.816Z,15.20
2018-02-06T18:39:00.336Z,18.90
2018-02-06T18:41:28.602Z,14.00
2018-02-06T18:43:56.895Z,15.50
2018-02-06T18:46:24.428Z,17.17
2018-02-06T18:48:51.937Z,16.90
2018-02-06T18:51:19.475Z,18.07
2018-02-06T18:53:47.009Z,17.47
2018-02-06T18:56:14.515Z,12.30
2018-02-06T18:58:42.039Z,11.50
2018-02-06T19:01:09.639Z,14.50
2018-02-06T19:03:37.190Z,18.53
2018-02-06T19:06:04.707Z,17.60
2018-02-06T19:08:32.283Z,13.63
2018-02-06T19:10:59.801Z,17.27
2018-02-06T19:13:27.407Z,16.90
2018-02-06T19:15:54.948Z,16.23
2018-02-06T19:18:22.470Z,17.20
2018-02-06T19:20:50.082Z,16.60
2018-02-06T19:23:17.698Z,15.07
2018-02-06T19:25:45.262Z,14.67
2018-02-06T19:28:12.780Z,14.47
2018-02-06T19:30:41.053Z,14.80
2018-02-06T19:33:08.608Z,13.00
2018-02-06T19:35:36.932Z,14.80
2018-02-06T19:38:04.438Z,12.33
2018-02-06T19:40:31.920Z,16.00
2018-02-06T19:42:59.457Z,11.40
2018-02-06T19:45:26.992Z,15.27
2018-02-06T19:47:54.529Z,16.60
2018-02-06T19:50:22.097Z,16.43
2018-02-06T19:52:49.651Z,13.73
2018-02-06T19:55:17.201Z,11.33
2018-02-06T19:57:44.716Z,14.47
2018-02-06T20:00:12.256Z,15.07
2018-02-06T20:02:39.754Z,13.70
2018-02-06T20:05:08.022Z,15.07
2018-02-06T20:07:35.594Z,14.43
2018-02-06T20:10:03.167Z,14.43
2018-02-06T20:12:30.687Z,13.70
2018-02-06T20:14:58.328Z,11.53
2018-02-06T20:17:25.899Z,15.73
2018-02-06T20:19:53.474Z,15.70
2018-02-06T20:22:21.149Z,15.80
2018-02-06T20:24:48.883Z,16.00
2018-02-06T20:27:16.537Z,12.67
2018-02-06T20:29:44.049Z,14.60
2018-02-06T20:32:11.638Z,18.77
2018-02-06T20:34:39.974Z,13.87
2018-02-06T20:37:07.546Z,13.60
2018-02-06T20:39:35.142Z,14.37
2018-02-06T20:42:02.869Z,10.80
2018-02-06T20:44:30.453Z,10.73
2018-02-06T20:46:58.750Z,13.40
2018-02-06T20:49:26.325Z,11.50
2018-02-06T20:51:53.861Z,9.90
2018-02-06T20:54:22.143Z,11.77
2018-02-06T20:56:49.720Z,12.87
2018-02-06T20:59:17.225Z,14.20
2018-02-06T21:01:44.761Z,13.77
2018-02-06T21:04:12.344Z,14.67
2018-02-06T21:06:39.872Z,12.03
2018-02-06T21:09:07.394Z,12.90
2018-02-06T21:11:34.959Z,13.67
2018-02-06T21:14:04.124Z,12.30
2018-02-06T21:16:31.676Z,14.17
2018-02-06T21:18:59.236Z,12.87
2018-02-06T21:21:26.806Z,12.80
2018-02-06T21:23:54.498Z,13.63
2018-02-06T21:26:22.888Z,11.90
2018-02-06T21:28:51.365Z,10.33
2018-02-06T21:31:18.951Z,9.43
2018-02-06T21:33:46.769Z,13.40
2018-02-06T21:36:14.494Z,13.53
2018-02-06T21:38:42.499Z,12.73
2018-02-06T21:41:10.351Z,12.37
2018-02-06T21:43:37.880Z,12.53
2018-02-06T21:46:05.388Z,9.20
2018-02-06T21:48:32.959Z,12.13
2018-02-06T21:51:00.479Z,10.13
2018-02-06T21:53:28.627Z,7.93
2018-02-06T21:55:56.398Z,10.67
2018-02-06T21:58:23.934Z,8.63
2018-02-06T22:00:51.429Z,11.40
2018-02-06T22:03:18.982Z,9.27
2018-02-06T22:05:46.691Z,9.90
2018-02-06T22:08:14.288Z,10.47
2018-02-06T22:10:41.948Z,12.20
2018-02-06T22:13:10.329Z,11.57
2018-02-06T22:15:38.623Z,11.17
2018-02-06T22:18:06.174Z,12.17
2018-02-06T22:20:34.439Z,10.93
2018-02-06T22:23:01.976Z,10.17
2018-02-06T22:25:29.536Z,12.27
2018-02-06T22:27:57.093Z,12.47
2018-02-06T22:30:24.683Z,12.93
2018-02-06T22:32:53.231Z,11.87
2018-02-06T22:35:20.825Z,12.27
2018-02-06T22:37:48.489Z,9.70
2018-02-06T22:40:16.084Z,12.37
2018-02-06T22:42:43.660Z,10.40
2018-02-06T22:45:11.318Z,9.23
2018-02-06T22:47:39.623Z,12.30
2018-02-06T22:50:07.200Z,8.70
2018-02-06T22:52:34.725Z,11.43
2018-02-06T22:55:02.233Z,12.10
2018-02-06T22:57:29.797Z,10.40
2018-02-06T22:59:58.090Z,11.33
2018-02-06T23:02:25.622Z,9.33
2018-02-06T23:04:53.176Z,11.63
2018-02-06T23:07:20.790Z,12.47
2018-02-06T23:09:48.328Z,12.63
2018-02-06T23:12:16.620Z,10.33
2018-02-06T23:14:44.140Z,10.73
2018-02-06T23:17:11.689Z,12.27
2018-02-06T23:19:39.315Z,11.23
2018-02-06T23:22:06.956Z,11.80
2018-02-06T23:24:34.470Z,9.43
2018-02-06T23:27:02.109Z,10.37
2018-02-06T23:29:29.711Z,11.03
2018-02-06T23:31:57.211Z,7.83
2018-02-06T23:34:24.738Z,11.03
2018-02-06T23:36:52.232Z,9.00
2018-02-06T23:39:20.663Z,11.80
2018-02-06T23:41:48.172Z,11.97
2018-02-06T23:44:15.708Z,11.20
2018-02-06T23:46:43.777Z,9.70
2018-02-06T23:49:11.357Z,10.20
2018-02-06T23:51:39.708Z,10.17
2018-02-06T23:54:07.225Z,12.07
2018-02-06T23:56:35.545Z,11.47
2018-02-06T23:59:03.074Z,11.23
